sensor_id;sensor_type;location;lat;lon;timestamp;pressure;altitude;pressure_sealevel;temperature;humidity
56604;BME280;42486;47.478;19.036;2023-03-04T00:02:17;100307.44;;;0.99;100.00
56604;BME280;42486;47.478;19.036;2023-03-04T00:05:23;100320.31;;;0.99;100.00
56604;BME280;42486;47.478;19.036;2023-03-04T00:08:34;100318.53;;;1.01;100.00
56604;BME280;42486;47.478;19.036;2023-03-04T00:11:45;100316.94;;;0.97;100.00
56604;BME280;42486;47.478;19.036;2023-03-04T00:14:54;100316.34;;;0.91;100.00
56604;BME280;42486;47.478;19.036;2023-03-04T00:18:11;100306.88;;;0.91;100.00
56604;BME280;42486;47.478;19.036;2023-03-04T00:21:25;100312.59;;;0.99;100.00
56604;BME280;42486;47.478;19.036;2023-03-04T00:24:31;100308.63;;;0.91;100.00
56604;BME280;42486;47.478;19.036;2023-03-04T00:27:44;100302.78;;;0.85;100.00
56604;BME280;42486;47.478;19.036;2023-03-04T00:30:49;100298.31;;;0.91;100.00
56604;BME280;42486;47.478;19.036;2023-03-04T00:34:00;100303.19;;;0.98;100.00
56604;BME280;42486;47.478;19.036;2023-03-04T00:37:04;100301.25;;;1.05;100.00
56604;BME280;42486;47.478;19.036;2023-03-04T00:40:11;100296.09;;;1.05;100.00
56604;BME280;42486;47.478;19.036;2023-03-04T00:43:17;100303.66;;;1.09;100.00
56604;BME280;42486;47.478;19.036;2023-03-04T00:46:27;100292.59;;;1.07;100.00
56604;BME280;42486;47.478;19.036;2023-03-04T00:49:32;100305.56;;;1.04;100.00
56604;BME280;42486;47.478;19.036;2023-03-04T00:52:38;100301.34;;;1.02;100.00
56604;BME280;42486;47.478;19.036;2023-03-04T00:55:45;100302.91;;;1.06;100.00
56604;BME280;42486;47.478;19.036;2023-03-04T00:58:57;100300.94;;;0.89;99.47
56604;BME280;42486;47.478;19.036;2023-03-04T01:02:07;100295.53;;;0.72;99.09
56604;BME280;42486;47.478;19.036;2023-03-04T01:05:14;100290.56;;;0.67;98.98
56604;BME280;42486;47.478;19.036;2023-03-04T01:08:26;100287.19;;;0.65;98.89
56604;BME280;42486;47.478;19.036;2023-03-04T01:11:31;100282.19;;;0.60;100.00
56604;BME280;42486;47.478;19.036;2023-03-04T01:14:38;100279.88;;;0.53;100.00
56604;BME280;42486;47.478;19.036;2023-03-04T01:17:47;100275.63;;;0.52;100.00
56604;BME280;42486;47.478;19.036;2023-03-04T01:20:51;100273.03;;;0.53;100.00
56604;BME280;42486;47.478;19.036;2023-03-04T01:24:02;100272.38;;;0.47;100.00
56604;BME280;42486;47.478;19.036;2023-03-04T01:27:06;100274.25;;;0.41;100.00
56604;BME280;42486;47.478;19.036;2023-03-04T01:30:10;100271.25;;;0.29;100.00
56604;BME280;42486;47.478;19.036;2023-03-04T01:33:15;100261.81;;;0.29;100.00
56604;BME280;42486;47.478;19.036;2023-03-04T01:36:26;100261.91;;;0.26;100.00
56604;BME280;42486;47.478;19.036;2023-03-04T01:39:36;100258.38;;;0.30;100.00
56604;BME280;42486;47.478;19.036;2023-03-04T01:42:46;100254.91;;;0.31;100.00
56604;BME280;42486;47.478;19.036;2023-03-04T01:45:53;100248.47;;;0.18;100.00
56604;BME280;42486;47.478;19.036;2023-03-04T01:49:05;100257.09;;;0.17;100.00
56604;BME280;42486;47.478;19.036;2023-03-04T01:52:11;100243.75;;;0.06;100.00
56604;BME280;42486;47.478;19.036;2023-03-04T01:55:19;100247.37;;;0.00;100.00
56604;BME280;42486;47.478;19.036;2023-03-04T01:58:32;100244.13;;;-0.07;100.00
56604;BME280;42486;47.478;19.036;2023-03-04T02:01:39;100241.53;;;-0.05;100.00
56604;BME280;42486;47.478;19.036;2023-03-04T02:04:59;100235.72;;;-0.12;100.00
56604;BME280;42486;47.478;19.036;2023-03-04T02:08:16;100233.91;;;-0.08;100.00
56604;BME280;42486;47.478;19.036;2023-03-04T02:11:30;100241.69;;;-0.11;100.00
56604;BME280;42486;47.478;19.036;2023-03-04T02:14:39;100231.84;;;-0.24;100.00
56604;BME280;42486;47.478;19.036;2023-03-04T02:17:45;100225.91;;;-0.26;100.00
56604;BME280;42486;47.478;19.036;2023-03-04T02:27:30;100210.84;;;-0.36;100.00
56604;BME280;42486;47.478;19.036;2023-03-04T02:30:43;100203.25;;;-0.39;100.00
56604;BME280;42486;47.478;19.036;2023-03-04T02:33:53;100198.97;;;-0.40;100.00
56604;BME280;42486;47.478;19.036;2023-03-04T02:37:05;100203.47;;;-0.47;100.00
56604;BME280;42486;47.478;19.036;2023-03-04T02:40:32;100199.38;;;-0.53;100.00
56604;BME280;42486;47.478;19.036;2023-03-04T02:43:44;100193.56;;;-0.59;100.00
56604;BME280;42486;47.478;19.036;2023-03-04T02:46:52;100188.31;;;-0.55;100.00
56604;BME280;42486;47.478;19.036;2023-03-04T02:50:08;100197.13;;;-0.63;100.00
56604;BME280;42486;47.478;19.036;2023-03-04T02:53:23;100194.59;;;-0.65;100.00
56604;BME280;42486;47.478;19.036;2023-03-04T02:56:28;100185.25;;;-0.68;100.00
56604;BME280;42486;47.478;19.036;2023-03-04T02:59:38;100177.56;;;-0.68;100.00
56604;BME280;42486;47.478;19.036;2023-03-04T03:02:45;100182.47;;;-0.60;100.00
56604;BME280;42486;47.478;19.036;2023-03-04T03:05:52;100187.78;;;-0.66;100.00
56604;BME280;42486;47.478;19.036;2023-03-04T03:09:04;100177.62;;;-0.69;100.00
56604;BME280;42486;47.478;19.036;2023-03-04T03:12:08;100177.56;;;-0.68;100.00
56604;BME280;42486;47.478;19.036;2023-03-04T03:15:13;100180.03;;;-0.64;100.00
56604;BME280;42486;47.478;19.036;2023-03-04T03:18:21;100175.91;;;-0.69;100.00
56604;BME280;42486;47.478;19.036;2023-03-04T03:21:26;100170.59;;;-0.64;100.00
56604;BME280;42486;47.478;19.036;2023-03-04T03:24:40;100173.34;;;-0.69;100.00
56604;BME280;42486;47.478;19.036;2023-03-04T03:27:45;100162.59;;;-0.81;100.00
56604;BME280;42486;47.478;19.036;2023-03-04T03:30:52;100165.19;;;-0.83;100.00
56604;BME280;42486;47.478;19.036;2023-03-04T03:34:03;100160.44;;;-0.67;100.00
56604;BME280;42486;47.478;19.036;2023-03-04T03:37:11;100167.50;;;-0.74;100.00
56604;BME280;42486;47.478;19.036;2023-03-04T03:40:20;100162.37;;;-0.74;100.00
56604;BME280;42486;47.478;19.036;2023-03-04T03:43:33;100163.31;;;-0.76;100.00
56604;BME280;42486;47.478;19.036;2023-03-04T03:46:43;100157.41;;;-0.80;100.00
56604;BME280;42486;47.478;19.036;2023-03-04T03:49:57;100155.66;;;-0.78;100.00
56604;BME280;42486;47.478;19.036;2023-03-04T03:53:03;100148.97;;;-0.83;100.00
56604;BME280;42486;47.478;19.036;2023-03-04T03:56:12;100151.44;;;-0.80;100.00
56604;BME280;42486;47.478;19.036;2023-03-04T03:59:20;100153.31;;;-0.85;100.00
56604;BME280;42486;47.478;19.036;2023-03-04T04:02:36;100148.16;;;-0.84;100.00
56604;BME280;42486;47.478;19.036;2023-03-04T04:05:48;100155.72;;;-0.79;100.00
56604;BME280;42486;47.478;19.036;2023-03-04T04:09:01;100157.59;;;-0.86;100.00
56604;BME280;42486;47.478;19.036;2023-03-04T04:12:05;100152.53;;;-0.87;100.00
56604;BME280;42486;47.478;19.036;2023-03-04T04:15:13;100154.16;;;-0.85;100.00
56604;BME280;42486;47.478;19.036;2023-03-04T04:18:20;100155.75;;;-0.81;100.00
56604;BME280;42486;47.478;19.036;2023-03-04T04:21:28;100154.16;;;-0.85;100.00
56604;BME280;42486;47.478;19.036;2023-03-04T04:24:33;100142.91;;;-0.81;100.00
56604;BME280;42486;47.478;19.036;2023-03-04T04:27:45;100149.13;;;-0.60;100.00
56604;BME280;42486;47.478;19.036;2023-03-04T04:30:49;100159.19;;;-0.54;100.00
56604;BME280;42486;47.478;19.036;2023-03-04T04:33:58;100158.41;;;-0.56;100.00
56604;BME280;42486;47.478;19.036;2023-03-04T04:37:08;100146.47;;;-0.57;100.00
56604;BME280;42486;47.478;19.036;2023-03-04T04:40:15;100154.75;;;-0.49;100.00
56604;BME280;42486;47.478;19.036;2023-03-04T04:43:21;100152.06;;;-0.44;100.00
56604;BME280;42486;47.478;19.036;2023-03-04T04:46:26;100148.78;;;-0.49;100.00
56604;BME280;42486;47.478;19.036;2023-03-04T04:49:34;100136.88;;;-0.52;100.00
56604;BME280;42486;47.478;19.036;2023-03-04T04:52:38;100139.75;;;-0.61;99.81
56604;BME280;42486;47.478;19.036;2023-03-04T04:55:47;100139.59;;;-0.56;99.92
56604;BME280;42486;47.478;19.036;2023-03-04T04:58:57;100132.50;;;-0.48;99.49
56604;BME280;42486;47.478;19.036;2023-03-04T05:02:05;100142.75;;;-0.48;99.21
56604;BME280;42486;47.478;19.036;2023-03-04T05:05:11;100143.56;;;-0.46;98.90
56604;BME280;42486;47.478;19.036;2023-03-04T05:08:25;100141.56;;;-0.38;97.74
56604;BME280;42486;47.478;19.036;2023-03-04T05:11:31;100137.09;;;-0.31;96.39
56604;BME280;42486;47.478;19.036;2023-03-04T05:14:36;100134.44;;;-0.28;95.36
56604;BME280;42486;47.478;19.036;2023-03-04T05:17:46;100145.41;;;-0.23;97.23
56604;BME280;42486;47.478;19.036;2023-03-04T05:20:51;100146.91;;;-0.17;97.21
56604;BME280;42486;47.478;19.036;2023-03-04T05:23:57;100147.66;;;-0.14;96.57
56604;BME280;42486;47.478;19.036;2023-03-04T05:27:02;100148.34;;;-0.09;95.27
56604;BME280;42486;47.478;19.036;2023-03-04T05:30:12;100156.38;;;0.07;94.45
56604;BME280;42486;47.478;19.036;2023-03-04T05:33:16;100151.81;;;0.15;93.63
56604;BME280;42486;47.478;19.036;2023-03-04T05:36:19;100158.47;;;0.21;93.27
56604;BME280;42486;47.478;19.036;2023-03-04T05:39:33;100159.03;;;0.29;91.92
56604;BME280;42486;47.478;19.036;2023-03-04T05:42:41;100157.94;;;0.36;91.75
56604;BME280;42486;47.478;19.036;2023-03-04T05:45:58;100168.59;;;0.51;92.83
56604;BME280;42486;47.478;19.036;2023-03-04T05:49:07;100170.97;;;0.55;91.18
56604;BME280;42486;47.478;19.036;2023-03-04T05:52:12;100174.03;;;0.67;91.65
56604;BME280;42486;47.478;19.036;2023-03-04T05:55:16;100168.41;;;1.04;84.96
56604;BME280;42486;47.478;19.036;2023-03-04T05:58:26;100168.81;;;1.15;85.87
56604;BME280;42486;47.478;19.036;2023-03-04T06:01:30;100175.38;;;1.22;86.06
56604;BME280;42486;47.478;19.036;2023-03-04T06:04:37;100176.44;;;1.40;84.42
56604;BME280;42486;47.478;19.036;2023-03-04T06:07:42;100175.06;;;1.53;86.73
56604;BME280;42486;47.478;19.036;2023-03-04T06:10:45;100180.03;;;1.58;84.09
56604;BME280;42486;47.478;19.036;2023-03-04T06:13:56;100184.88;;;1.66;86.35
56604;BME280;42486;47.478;19.036;2023-03-04T06:17:04;100200.09;;;1.72;86.62
56604;BME280;42486;47.478;19.036;2023-03-04T06:20:17;100194.50;;;1.83;84.68
56604;BME280;42486;47.478;19.036;2023-03-04T06:23:28;100201.75;;;1.95;84.38
56604;BME280;42486;47.478;19.036;2023-03-04T06:26:33;100205.03;;;1.98;84.48
56604;BME280;42486;47.478;19.036;2023-03-04T06:29:37;100202.53;;;2.17;85.05
56604;BME280;42486;47.478;19.036;2023-03-04T06:32:45;100216.44;;;4.06;76.70
56604;BME280;42486;47.478;19.036;2023-03-04T06:35:57;100229.19;;;6.51;64.43
56604;BME280;42486;47.478;19.036;2023-03-04T06:39:05;100233.47;;;8.20;58.93
56604;BME280;42486;47.478;19.036;2023-03-04T06:42:11;100233.41;;;11.13;46.53
56604;BME280;42486;47.478;19.036;2023-03-04T06:45:16;100232.25;;;12.36;43.09
56604;BME280;42486;47.478;19.036;2023-03-04T06:48:24;100238.94;;;11.53;43.01
56604;BME280;42486;47.478;19.036;2023-03-04T06:51:28;100236.97;;;10.78;45.52
56604;BME280;42486;47.478;19.036;2023-03-04T06:54:34;100234.31;;;9.48;50.13
56604;BME280;42486;47.478;19.036;2023-03-04T06:57:38;100232.53;;;8.60;52.01
56604;BME280;42486;47.478;19.036;2023-03-04T07:00:42;100233.03;;;8.53;51.22
56604;BME280;42486;47.478;19.036;2023-03-04T07:03:45;100226.66;;;8.04;51.73
56604;BME280;42486;47.478;19.036;2023-03-04T07:06:51;100221.62;;;6.77;56.06
56604;BME280;42486;47.478;19.036;2023-03-04T07:09:58;100216.94;;;6.39;59.68
56604;BME280;42486;47.478;19.036;2023-03-04T07:13:02;100221.06;;;6.27;58.52
56604;BME280;42486;47.478;19.036;2023-03-04T07:16:08;100210.63;;;5.99;57.52
56604;BME280;42486;47.478;19.036;2023-03-04T07:19:16;100211.94;;;5.90;61.66
56604;BME280;42486;47.478;19.036;2023-03-04T07:22:23;100217.03;;;5.91;59.62
56604;BME280;42486;47.478;19.036;2023-03-04T07:25:30;100213.03;;;6.02;61.50
56604;BME280;42486;47.478;19.036;2023-03-04T07:28:39;100222.88;;;7.41;56.55
56604;BME280;42486;47.478;19.036;2023-03-04T07:31:44;100224.84;;;8.59;52.94
56604;BME280;42486;47.478;19.036;2023-03-04T07:34:47;100218.78;;;8.06;54.97
56604;BME280;42486;47.478;19.036;2023-03-04T07:37:55;100213.00;;;7.61;55.18
56604;BME280;42486;47.478;19.036;2023-03-04T07:41:01;100212.66;;;7.38;55.30
56604;BME280;42486;47.478;19.036;2023-03-04T07:44:11;100214.16;;;7.28;53.05
56604;BME280;42486;47.478;19.036;2023-03-04T07:47:23;100203.72;;;6.87;53.75
56604;BME280;42486;47.478;19.036;2023-03-04T07:50:30;100206.50;;;6.98;53.29
56604;BME280;42486;47.478;19.036;2023-03-04T07:53:34;100207.22;;;7.14;50.35
56604;BME280;42486;47.478;19.036;2023-03-04T07:56:41;100215.03;;;7.14;50.00
56604;BME280;42486;47.478;19.036;2023-03-04T07:59:45;100207.25;;;7.00;49.65
56604;BME280;42486;47.478;19.036;2023-03-04T08:02:49;100215.56;;;7.19;49.21
56604;BME280;42486;47.478;19.036;2023-03-04T08:05:55;100214.25;;;7.68;51.45
56604;BME280;42486;47.478;19.036;2023-03-04T08:09:00;100215.53;;;7.75;46.90
56604;BME280;42486;47.478;19.036;2023-03-04T08:12:06;100217.88;;;7.38;46.62
56604;BME280;42486;47.478;19.036;2023-03-04T08:15:14;100222.91;;;7.27;47.43
56604;BME280;42486;47.478;19.036;2023-03-04T08:18:19;100222.66;;;7.44;46.83
56604;BME280;42486;47.478;19.036;2023-03-04T08:21:24;100214.41;;;7.79;46.84
56604;BME280;42486;47.478;19.036;2023-03-04T08:24:33;100218.62;;;7.67;45.82
56604;BME280;42486;47.478;19.036;2023-03-04T08:27:37;100217.03;;;7.92;46.46
56604;BME280;42486;47.478;19.036;2023-03-04T08:30:42;100214.16;;;7.97;46.46
56604;BME280;42486;47.478;19.036;2023-03-04T08:33:47;100210.78;;;8.22;48.03
56604;BME280;42486;47.478;19.036;2023-03-04T08:36:53;100207.06;;;8.38;47.56
56604;BME280;42486;47.478;19.036;2023-03-04T08:40:04;100210.28;;;8.16;46.31
56604;BME280;42486;47.478;19.036;2023-03-04T08:43:08;100209.03;;;7.95;46.57
56604;BME280;42486;47.478;19.036;2023-03-04T08:46:12;100210.75;;;7.82;47.05
56604;BME280;42486;47.478;19.036;2023-03-04T08:49:15;100199.87;;;7.89;49.25
56604;BME280;42486;47.478;19.036;2023-03-04T08:52:18;100199.50;;;7.96;47.62
56604;BME280;42486;47.478;19.036;2023-03-04T08:55:24;100204.81;;;8.07;47.54
56604;BME280;42486;47.478;19.036;2023-03-04T08:58:31;100199.84;;;8.16;47.62
56604;BME280;42486;47.478;19.036;2023-03-04T09:01:35;100206.41;;;8.22;47.66
56604;BME280;42486;47.478;19.036;2023-03-04T09:04:39;100199.56;;;8.34;47.54
56604;BME280;42486;47.478;19.036;2023-03-04T09:07:44;100197.56;;;8.37;47.16
56604;BME280;42486;47.478;19.036;2023-03-04T09:10:50;100199.06;;;8.42;47.38
56604;BME280;42486;47.478;19.036;2023-03-04T09:13:55;100200.47;;;8.20;48.70
56604;BME280;42486;47.478;19.036;2023-03-04T09:16:58;100198.00;;;8.31;47.96
56604;BME280;42486;47.478;19.036;2023-03-04T09:20:07;100203.56;;;8.52;46.84
56604;BME280;42486;47.478;19.036;2023-03-04T09:23:16;100202.00;;;8.63;48.19
56604;BME280;42486;47.478;19.036;2023-03-04T09:26:26;100194.50;;;8.58;47.87
56604;BME280;42486;47.478;19.036;2023-03-04T09:29:33;100190.22;;;8.44;48.57
56604;BME280;42486;47.478;19.036;2023-03-04T09:32:40;100182.06;;;8.36;48.85
56604;BME280;42486;47.478;19.036;2023-03-04T09:35:44;100175.97;;;8.50;49.40
56604;BME280;42486;47.478;19.036;2023-03-04T09:38:57;100174.59;;;8.82;48.76
56604;BME280;42486;47.478;19.036;2023-03-04T09:42:06;100196.06;;;8.60;48.92
56604;BME280;42486;47.478;19.036;2023-03-04T09:45:19;100182.94;;;8.62;48.89
56604;BME280;42486;47.478;19.036;2023-03-04T09:48:24;100178.44;;;8.90;48.17
56604;BME280;42486;47.478;19.036;2023-03-04T09:51:40;100175.50;;;9.07;47.47
56604;BME280;42486;47.478;19.036;2023-03-04T09:57:52;100162.66;;;9.04;47.93
56604;BME280;42486;47.478;19.036;2023-03-04T10:01:04;100154.44;;;9.10;47.72
56604;BME280;42486;47.478;19.036;2023-03-04T10:07:23;100141.91;;;9.15;47.30
56604;BME280;42486;47.478;19.036;2023-03-04T10:10:34;100143.25;;;9.21;47.78
56604;BME280;42486;47.478;19.036;2023-03-04T10:13:45;100134.25;;;9.49;47.11
56604;BME280;42486;47.478;19.036;2023-03-04T10:17:01;100143.72;;;9.63;46.74
56604;BME280;42486;47.478;19.036;2023-03-04T10:20:18;100150.47;;;9.65;45.36
56604;BME280;42486;47.478;19.036;2023-03-04T10:23:25;100142.81;;;9.51;45.79
56604;BME280;42486;47.478;19.036;2023-03-04T10:26:30;100139.09;;;9.42;46.14
56604;BME280;42486;47.478;19.036;2023-03-04T10:29:37;100146.34;;;9.26;46.22
56604;BME280;42486;47.478;19.036;2023-03-04T10:32:44;100140.78;;;9.31;46.57
56604;BME280;42486;47.478;19.036;2023-03-04T10:35:48;100134.22;;;9.38;46.69
56604;BME280;42486;47.478;19.036;2023-03-04T10:39:00;100127.16;;;9.51;45.80
56604;BME280;42486;47.478;19.036;2023-03-04T10:42:20;100123.50;;;9.54;46.14
56604;BME280;42486;47.478;19.036;2023-03-04T10:45:26;100132.50;;;9.85;45.69
56604;BME280;42486;47.478;19.036;2023-03-04T10:48:40;100131.75;;;9.72;44.55
56604;BME280;42486;47.478;19.036;2023-03-04T10:51:48;100119.69;;;9.82;43.52
56604;BME280;42486;47.478;19.036;2023-03-04T10:54:53;100117.72;;;10.08;43.57
56604;BME280;42486;47.478;19.036;2023-03-04T10:58:03;100112.91;;;10.26;42.84
56604;BME280;42486;47.478;19.036;2023-03-04T11:01:12;100117.00;;;10.41;42.54
56604;BME280;42486;47.478;19.036;2023-03-04T11:04:33;100102.53;;;10.48;42.89
56604;BME280;42486;47.478;19.036;2023-03-04T11:07:39;100103.41;;;10.25;41.48
56604;BME280;42486;47.478;19.036;2023-03-04T11:10:57;100101.97;;;10.21;41.40
56604;BME280;42486;47.478;19.036;2023-03-04T11:14:09;100092.72;;;10.17;40.02
56604;BME280;42486;47.478;19.036;2023-03-04T11:17:19;100094.50;;;10.16;40.64
56604;BME280;42486;47.478;19.036;2023-03-04T11:20:29;100097.31;;;10.02;40.07
56604;BME280;42486;47.478;19.036;2023-03-04T11:27:46;100095.88;;;10.33;39.81
56604;BME280;42486;47.478;19.036;2023-03-04T11:30:35;100082.06;;;10.20;40.41
56604;BME280;42486;47.478;19.036;2023-03-04T11:33:50;100081.66;;;10.13;41.01
56604;BME280;42486;47.478;19.036;2023-03-04T11:37:05;100086.62;;;10.40;41.01
56604;BME280;42486;47.478;19.036;2023-03-04T11:40:15;100075.97;;;10.08;41.72
56604;BME280;42486;47.478;19.036;2023-03-04T11:43:38;100077.22;;;10.38;41.66
56604;BME280;42486;47.478;19.036;2023-03-04T11:59:18;100060.84;;;11.13;41.17
56604;BME280;42486;47.478;19.036;2023-03-04T12:05:55;100041.91;;;10.88;40.93
56604;BME280;42486;47.478;19.036;2023-03-04T12:22:41;100023.66;;;10.66;42.18
56604;BME280;42486;47.478;19.036;2023-03-04T12:25:54;100023.31;;;10.36;42.95
56604;BME280;42486;47.478;19.036;2023-03-04T12:29:11;100012.97;;;10.57;43.30
56604;BME280;42486;47.478;19.036;2023-03-04T12:32:35;100024.22;;;10.80;42.89
56604;BME280;42486;47.478;19.036;2023-03-04T12:35:45;100003.13;;;10.61;42.23
56604;BME280;42486;47.478;19.036;2023-03-04T12:42:17;99993.69;;;10.81;42.25
56604;BME280;42486;47.478;19.036;2023-03-04T12:45:36;99991.75;;;10.94;42.18
56604;BME280;42486;47.478;19.036;2023-03-04T12:48:46;99998.34;;;11.10;42.31
56604;BME280;42486;47.478;19.036;2023-03-04T12:55:03;99982.06;;;11.38;42.08
56604;BME280;42486;47.478;19.036;2023-03-04T12:58:15;99978.16;;;11.00;42.63
56604;BME280;42486;47.478;19.036;2023-03-04T13:01:29;99978.66;;;11.27;42.15
56604;BME280;42486;47.478;19.036;2023-03-04T13:04:49;99971.34;;;11.41;42.37
56604;BME280;42486;47.478;19.036;2023-03-04T13:14:37;99970.44;;;11.73;41.63
56604;BME280;42486;47.478;19.036;2023-03-04T13:17:41;99955.94;;;11.69;41.41
56604;BME280;42486;47.478;19.036;2023-03-04T13:20:46;99952.34;;;11.70;42.39
56604;BME280;42486;47.478;19.036;2023-03-04T13:34:02;99925.37;;;11.49;41.31
56604;BME280;42486;47.478;19.036;2023-03-04T13:37:25;99919.63;;;11.76;41.82
56604;BME280;42486;47.478;19.036;2023-03-04T13:40:33;99912.41;;;11.89;40.46
56604;BME280;42486;47.478;19.036;2023-03-04T13:43:43;99903.84;;;11.87;37.81
56604;BME280;42486;47.478;19.036;2023-03-04T13:46:50;99907.72;;;11.93;36.36
56604;BME280;42486;47.478;19.036;2023-03-04T13:53:20;99891.78;;;12.05;36.45
56604;BME280;42486;47.478;19.036;2023-03-04T13:56:38;99885.94;;;11.92;36.27
56604;BME280;42486;47.478;19.036;2023-03-04T14:00:03;99882.44;;;11.82;36.42
56604;BME280;42486;47.478;19.036;2023-03-04T14:03:12;99888.88;;;11.78;36.23
56604;BME280;42486;47.478;19.036;2023-03-04T14:06:21;99892.91;;;11.82;35.19
56604;BME280;42486;47.478;19.036;2023-03-04T14:09:26;99878.41;;;11.68;33.98
56604;BME280;42486;47.478;19.036;2023-03-04T14:12:30;99872.63;;;11.74;33.11
56604;BME280;42486;47.478;19.036;2023-03-04T14:15:36;99868.09;;;11.76;34.05
56604;BME280;42486;47.478;19.036;2023-03-04T14:18:40;99866.41;;;11.75;33.13
56604;BME280;42486;47.478;19.036;2023-03-04T14:21:45;99872.75;;;11.73;33.95
56604;BME280;42486;47.478;19.036;2023-03-04T14:25:01;99867.88;;;11.58;33.02
56604;BME280;42486;47.478;19.036;2023-03-04T14:28:09;99867.50;;;11.63;33.93
56604;BME280;42486;47.478;19.036;2023-03-04T14:31:17;99860.03;;;11.58;33.08
56604;BME280;42486;47.478;19.036;2023-03-04T14:34:31;99878.28;;;11.49;33.09
56604;BME280;42486;47.478;19.036;2023-03-04T14:38:02;99876.09;;;11.23;34.13
56604;BME280;42486;47.478;19.036;2023-03-04T14:41:06;99876.22;;;11.21;35.01
56604;BME280;42486;47.478;19.036;2023-03-04T14:47:19;99878.75;;;11.33;35.54
56604;BME280;42486;47.478;19.036;2023-03-04T14:50:26;99874.06;;;11.06;35.78
56604;BME280;42486;47.478;19.036;2023-03-04T14:53:31;99878.22;;;11.08;36.35
56604;BME280;42486;47.478;19.036;2023-03-04T14:56:42;99887.72;;;11.09;36.42
56604;BME280;42486;47.478;19.036;2023-03-04T14:59:47;99873.44;;;10.92;35.75
56604;BME280;42486;47.478;19.036;2023-03-04T15:02:53;99872.63;;;10.60;36.28
56604;BME280;42486;47.478;19.036;2023-03-04T15:09:34;99876.78;;;10.62;37.19
56604;BME280;42486;47.478;19.036;2023-03-04T15:12:39;99869.09;;;10.49;37.95
56604;BME280;42486;47.478;19.036;2023-03-04T15:15:44;99869.66;;;10.32;38.60
56604;BME280;42486;47.478;19.036;2023-03-04T15:22:05;99865.97;;;10.12;40.19
56604;BME280;42486;47.478;19.036;2023-03-04T15:25:15;99867.06;;;10.09;39.90
56604;BME280;42486;47.478;19.036;2023-03-04T15:28:22;99874.44;;;9.93;40.07
56604;BME280;42486;47.478;19.036;2023-03-04T15:31:27;99877.16;;;9.80;39.79
56604;BME280;42486;47.478;19.036;2023-03-04T15:34:32;99874.59;;;9.58;40.39
56604;BME280;42486;47.478;19.036;2023-03-04T15:37:38;99865.19;;;9.44;40.86
56604;BME280;42486;47.478;19.036;2023-03-04T15:40:42;99859.97;;;9.21;41.36
56604;BME280;42486;47.478;19.036;2023-03-04T15:43:47;99865.66;;;9.15;42.31
56604;BME280;42486;47.478;19.036;2023-03-04T15:46:54;99856.72;;;9.07;43.43
56604;BME280;42486;47.478;19.036;2023-03-04T15:49:57;99864.41;;;8.86;43.31
56604;BME280;42486;47.478;19.036;2023-03-04T15:53:02;99861.63;;;8.76;43.49
56604;BME280;42486;47.478;19.036;2023-03-04T15:56:12;99859.09;;;8.63;44.28
56604;BME280;42486;47.478;19.036;2023-03-04T15:59:17;99854.78;;;8.51;45.01
56604;BME280;42486;47.478;19.036;2023-03-04T16:02:21;99853.97;;;8.37;45.18
56604;BME280;42486;47.478;19.036;2023-03-04T16:05:26;99846.13;;;8.26;45.45
56604;BME280;42486;47.478;19.036;2023-03-04T16:08:31;99852.72;;;8.19;45.65
56604;BME280;42486;47.478;19.036;2023-03-04T16:11:35;99846.09;;;8.02;46.02
56604;BME280;42486;47.478;19.036;2023-03-04T16:14:41;99842.63;;;7.90;46.64
56604;BME280;42486;47.478;19.036;2023-03-04T16:17:49;99847.72;;;7.79;46.55
56604;BME280;42486;47.478;19.036;2023-03-04T16:20:53;99847.56;;;7.69;45.67
56604;BME280;42486;47.478;19.036;2023-03-04T16:23:58;99849.13;;;7.59;46.24
56604;BME280;42486;47.478;19.036;2023-03-04T16:27:02;99841.47;;;7.45;46.82
56604;BME280;42486;47.478;19.036;2023-03-04T16:30:18;99843.13;;;7.33;47.20
56604;BME280;42486;47.478;19.036;2023-03-04T16:33:28;99833.97;;;7.27;47.03
56604;BME280;42486;47.478;19.036;2023-03-04T16:36:34;99846.22;;;7.13;46.89
56604;BME280;42486;47.478;19.036;2023-03-04T16:39:40;99854.22;;;7.10;47.32
56604;BME280;42486;47.478;19.036;2023-03-04T16:42:47;99843.44;;;7.03;48.26
56604;BME280;42486;47.478;19.036;2023-03-04T16:45:53;99849.97;;;6.96;46.55
56604;BME280;42486;47.478;19.036;2023-03-04T16:49:03;99841.06;;;7.00;46.52
56604;BME280;42486;47.478;19.036;2023-03-04T16:52:22;99843.66;;;7.00;45.72
56604;BME280;42486;47.478;19.036;2023-03-04T16:55:28;99834.50;;;6.94;47.48
56604;BME280;42486;47.478;19.036;2023-03-04T16:58:34;99836.69;;;7.00;45.57
56604;BME280;42486;47.478;19.036;2023-03-04T17:01:41;99837.72;;;6.98;45.50
56604;BME280;42486;47.478;19.036;2023-03-04T17:04:46;99836.69;;;7.00;45.65
56604;BME280;42486;47.478;19.036;2023-03-04T17:07:50;99833.47;;;7.10;46.21
56604;BME280;42486;47.478;19.036;2023-03-04T17:10:59;99837.72;;;6.98;46.21
56604;BME280;42486;47.478;19.036;2023-03-04T17:14:03;99844.38;;;6.89;46.30
56604;BME280;42486;47.478;19.036;2023-03-04T17:17:06;99846.22;;;6.87;46.75
56604;BME280;42486;47.478;19.036;2023-03-04T17:20:21;99839.69;;;6.81;47.76
56604;BME280;42486;47.478;19.036;2023-03-04T17:23:27;99852.53;;;6.70;47.46
56604;BME280;42486;47.478;19.036;2023-03-04T17:26:34;99847.72;;;6.64;47.38
56604;BME280;42486;47.478;19.036;2023-03-04T17:29:38;99854.91;;;6.60;47.25
56604;BME280;42486;47.478;19.036;2023-03-04T17:32:41;99857.50;;;6.60;47.17
56604;BME280;42486;47.478;19.036;2023-03-04T17:35:48;99855.81;;;6.59;47.03
56604;BME280;42486;47.478;19.036;2023-03-04T17:39:02;99870.69;;;6.57;47.50
56604;BME280;42486;47.478;19.036;2023-03-04T17:42:07;99867.81;;;6.48;47.87